createdAt,value
2023-04-30T00:01:40.426Z,92.50
2023-04-30T00:16:44.992Z,92.80
2023-04-30T00:31:49.490Z,93.00
2023-04-30T00:46:53.951Z,93.40
2023-04-30T01:01:58.465Z,93.70
2023-04-30T01:17:07.496Z,94.30
2023-04-30T01:32:12.848Z,94.30
2023-04-30T01:47:25.622Z,94.20
2023-04-30T02:02:30.327Z,94.60
2023-04-30T02:17:34.837Z,94.50
2023-04-30T02:32:39.427Z,94.50
2023-04-30T02:47:43.870Z,94.60
2023-04-30T03:02:48.427Z,94.90
2023-04-30T03:17:53.015Z,95.40
2023-04-30T03:32:58.004Z,95.30
2023-04-30T03:48:02.400Z,95.70
2023-04-30T04:03:07.423Z,96.00
2023-04-30T04:18:12.050Z,96.30
2023-04-30T04:33:17.227Z,96.70
2023-04-30T04:48:22.147Z,97.10
2023-04-30T05:03:27.383Z,97.40
2023-04-30T05:18:31.973Z,97.80
2023-04-30T05:33:37.158Z,97.90
2023-04-30T05:48:41.799Z,98.90
2023-04-30T06:03:46.232Z,98.30
2023-04-30T06:18:52.934Z,98.40
2023-04-30T06:33:58.069Z,98.30
2023-04-30T06:49:02.509Z,98.50
2023-04-30T07:04:07.098Z,98.50
2023-04-30T07:19:11.544Z,98.40
2023-04-30T07:34:15.902Z,98.40
2023-04-30T07:49:20.188Z,98.90
2023-04-30T08:04:24.721Z,98.80
2023-04-30T08:19:29.168Z,98.90
2023-04-30T08:34:33.686Z,99.00
2023-04-30T08:49:38.380Z,99.10
2023-04-30T09:04:42.755Z,98.90
2023-04-30T09:19:47.260Z,98.60
2023-04-30T09:34:52.094Z,98.10
2023-04-30T09:49:56.676Z,97.90
2023-04-30T10:05:02.038Z,97.30
2023-04-30T10:20:10.548Z,97.80
2023-04-30T10:35:20.553Z,97.00
2023-04-30T10:50:25.120Z,97.00
2023-04-30T11:05:40.095Z,95.50
2023-04-30T11:20:51.920Z,93.60
2023-04-30T11:35:57.708Z,93.50
2023-04-30T11:51:04.695Z,91.80
2023-04-30T12:06:11.500Z,90.70
2023-04-30T12:21:17.184Z,91.00
2023-04-30T12:36:21.858Z,90.30
2023-04-30T12:51:28.504Z,90.00
2023-04-30T13:06:33.323Z,87.50
2023-04-30T13:21:37.804Z,86.40
2023-04-30T13:36:42.473Z,86.00
2023-04-30T13:51:46.835Z,82.00
2023-04-30T14:06:52.879Z,83.50
2023-04-30T14:21:57.383Z,84.40
2023-04-30T14:37:03.827Z,82.50
2023-04-30T14:52:08.231Z,84.30
2023-04-30T15:07:12.800Z,82.50
2023-04-30T15:22:17.357Z,83.90
2023-04-30T15:37:21.965Z,82.80
2023-04-30T15:52:26.327Z,82.90
2023-04-30T16:07:32.652Z,82.50
2023-04-30T16:22:37.358Z,83.00
2023-04-30T16:37:41.858Z,82.50
2023-04-30T16:52:46.269Z,82.00
2023-04-30T17:07:50.689Z,83.10
2023-04-30T17:22:55.964Z,82.90
2023-04-30T17:38:00.551Z,82.40
2023-04-30T17:53:04.970Z,83.50
2023-04-30T18:08:10.199Z,84.00
2023-04-30T18:23:15.308Z,84.70
2023-04-30T18:38:20.606Z,84.30
2023-04-30T18:53:25.701Z,85.30
2023-04-30T19:08:30.119Z,85.60
2023-04-30T19:23:35.638Z,85.40
2023-04-30T19:38:40.692Z,85.90
2023-04-30T19:53:45.180Z,86.50
2023-04-30T20:08:49.841Z,87.60
2023-04-30T20:23:55.991Z,88.20
2023-04-30T20:39:00.619Z,88.80
2023-04-30T20:54:05.188Z,88.50
2023-04-30T21:09:10.606Z,89.40
2023-04-30T21:24:15.087Z,90.20
2023-04-30T21:39:19.846Z,90.80
2023-04-30T21:54:24.262Z,91.10
2023-04-30T22:09:28.587Z,91.70
2023-04-30T22:24:33.356Z,91.90
2023-04-30T22:39:37.926Z,92.20
2023-04-30T22:54:42.801Z,91.80
2023-04-30T23:09:47.279Z,92.10
2023-04-30T23:24:51.850Z,92.70
2023-04-30T23:39:56.638Z,92.70
2023-04-30T23:55:01.448Z,93.40
